Time;durP1;ratioP1;P1;durP2;ratioP2;P2;SDS_P1;SDS_P2;PMS_P1;PMS_P2;Temp;Humidity;BMP_temperature;BMP_pressure;BME280_temperature;BME280_humidity;BME280_pressure;Samples;Min_cycle;Max_cycle;Signal;HPM_P1;HPM_P2
2021/05/21 00:02:17;;;;;;;57.38;51.15;;;22.50;55.60;;;;;;4824852;54;21007;-34
2021/05/21 00:07:18;;;;;;;58.87;52.50;;;22.50;55.50;;;;;;4858809;54;20999;-37
2021/05/21 00:12:19;;;;;;;58.70;51.40;;;22.50;55.50;;;;;;4802990;54;21419;-35
2021/05/21 00:17:19;;;;;;;56.65;48.45;;;22.50;55.50;;;;;;4813665;54;20995;-34
2021/05/21 00:22:20;;;;;;;58.17;50.12;;;22.50;55.60;;;;;;4807126;54;20995;-36
2021/05/21 00:27:23;;;;;;;56.08;49.80;;;22.50;55.50;;;;;;4796262;54;21102;-35
2021/05/21 00:32:23;;;;;;;56.83;49.75;;;22.50;55.50;;;;;;4794318;58;21050;-37
2021/05/21 00:37:24;;;;;;;54.10;48.17;;;22.50;55.40;;;;;;4793502;58;21158;-36
2021/05/21 00:42:25;;;;;;;56.22;48.90;;;22.50;55.40;;;;;;4811336;54;21630;-35
2021/05/21 00:47:27;;;;;;;54.85;48.15;;;22.50;55.40;;;;;;4800637;54;21462;-36
2021/05/21 00:52:30;;;;;;;53.33;46.95;;;22.50;55.40;;;;;;4803562;54;21031;-34
2021/05/21 00:57:31;;;;;;;51.47;45.88;;;22.50;55.40;;;;;;4813869;54;21070;-38
2021/05/21 01:02:32;;;;;;;51.72;46.15;;;22.50;55.40;;;;;;4811110;54;21012;-38
2021/05/21 01:07:32;;;;;;;52.50;45.63;;;22.50;55.40;;;;;;4802083;54;21098;-31
2021/05/21 01:12:33;;;;;;;52.62;46.28;;;22.50;55.30;;;;;;4819452;54;21011;-38
2021/05/21 01:17:37;;;;;;;53.65;45.80;;;22.40;55.30;;;;;;4810468;54;21057;-33
2021/05/21 01:22:38;;;;;;;49.67;43.87;;;22.40;55.20;;;;;;4797939;54;21040;-37
2021/05/21 01:27:39;;;;;;;49.03;43.65;;;22.40;55.20;;;;;;4814542;54;21961;-36
2021/05/21 01:32:41;;;;;;;50.72;43.95;;;22.40;55.30;;;;;;4806620;54;21059;-39
2021/05/21 01:37:43;;;;;;;50.20;43.78;;;22.40;55.20;;;;;;4810415;54;21110;-38
2021/05/21 01:42:44;;;;;;;50.45;43.97;;;22.40;55.20;;;;;;4810983;54;21122;-35
2021/05/21 01:47:47;;;;;;;47.75;42.50;;;22.40;55.20;;;;;;4806192;54;21051;-38
2021/05/21 01:52:48;;;;;;;48.80;42.83;;;22.50;55.20;;;;;;4816983;54;21485;-36
2021/05/21 01:57:49;;;;;;;46.95;41.72;;;22.40;55.20;;;;;;4794668;58;21043;-38
2021/05/21 02:02:50;;;;;;;45.50;40.50;;;22.40;55.10;;;;;;4836503;54;21004;-36
2021/05/21 02:07:51;;;;;;;47.22;40.55;;;22.40;55.10;;;;;;4794559;55;20996;-37
2021/05/21 02:12:52;;;;;;;45.12;40.12;;;22.40;55.10;;;;;;4858277;54;21066;-40
2021/05/21 02:17:53;;;;;;;46.80;40.53;;;22.40;55.10;;;;;;4801373;54;20991;-35
2021/05/21 02:22:54;;;;;;;44.55;39.75;;;22.40;55.20;;;;;;4806238;54;21022;-38
2021/05/21 02:27:54;;;;;;;44.75;39.92;;;22.40;55.10;;;;;;4832053;54;20994;-39
2021/05/21 02:32:55;;;;;;;44.80;39.67;;;22.40;55.10;;;;;;4794683;58;21054;-36
2021/05/21 02:37:56;;;;;;;43.47;38.78;;;22.40;55.10;;;;;;4808628;54;21103;-39
2021/05/21 02:42:57;;;;;;;45.28;40.30;;;22.40;55.00;;;;;;4793173;58;21059;-41
2021/05/21 02:47:58;;;;;;;46.55;40.15;;;22.40;55.00;;;;;;4794406;58;21560;-38
2021/05/21 02:52:59;;;;;;;44.22;38.55;;;22.40;55.00;;;;;;4823013;54;21063;-38
2021/05/21 02:58:00;;;;;;;42.67;37.97;;;22.40;55.00;;;;;;4794166;58;21485;-41
2021/05/21 03:03:01;;;;;;;43.38;37.78;;;22.40;54.90;;;;;;4793615;58;21492;-39
2021/05/21 03:08:02;;;;;;;41.63;36.38;;;22.40;55.00;;;;;;4821054;54;21039;-38
2021/05/21 03:13:03;;;;;;;41.28;36.40;;;22.40;54.90;;;;;;4842600;54;21047;-37
2021/05/21 03:18:04;;;;;;;41.85;36.58;;;22.40;54.90;;;;;;4804475;54;21051;-37
2021/05/21 03:23:05;;;;;;;41.30;36.72;;;22.40;54.90;;;;;;4793547;54;21051;-37
2021/05/21 03:28:06;;;;;;;44.08;38.22;;;22.40;54.80;;;;;;4829259;54;21027;-39
2021/05/21 03:33:08;;;;;;;41.17;35.67;;;22.40;54.90;;;;;;4821421;54;21024;-40
2021/05/21 03:38:09;;;;;;;40.97;35.92;;;22.40;54.80;;;;;;4859159;54;21672;-37
2021/05/21 03:43:10;;;;;;;39.33;34.78;;;22.40;54.70;;;;;;4861741;54;21086;-41
2021/05/21 03:48:12;;;;;;;40.72;35.40;;;22.40;54.70;;;;;;4836624;54;21103;-38
2021/05/21 03:53:15;;;;;;;38.28;33.92;;;22.40;54.70;;;;;;4884728;54;21572;-38
2021/05/21 03:58:15;;;;;;;40.70;34.83;;;22.40;54.70;;;;;;4818010;54;21481;-39
2021/05/21 04:03:16;;;;;;;39.03;34.20;;;22.40;54.70;;;;;;4797570;54;21000;-38
2021/05/21 04:08:17;;;;;;;38.92;34.40;;;22.40;54.70;;;;;;4812854;54;21000;-40
2021/05/21 04:13:18;;;;;;;40.88;34.85;;;22.40;54.70;;;;;;4801577;54;21710;-38
2021/05/21 04:18:19;;;;;;;39.58;34.22;;;22.40;54.60;;;;;;4799137;54;21018;-39
2021/05/21 04:23:20;;;;;;;40.15;35.22;;;22.40;54.60;;;;;;4804473;54;21063;-37
2021/05/21 04:28:20;;;;;;;38.08;33.97;;;22.40;55.20;;;;;;4794593;58;21594;-40
2021/05/21 04:33:21;;;;;;;39.30;34.72;;;22.40;54.50;;;;;;4808090;54;21018;-36
2021/05/21 04:38:22;;;;;;;35.50;31.55;;;22.40;54.50;;;;;;4817894;54;21059;-36
2021/05/21 04:43:29;;;;;;;36.85;32.80;;;22.30;54.60;;;;;;4795520;55;21091;-39
2021/05/21 04:48:31;;;;;;;36.45;32.00;;;22.40;54.60;;;;;;4816835;54;21007;-40
2021/05/21 04:53:32;;;;;;;36.75;32.83;;;22.40;54.60;;;;;;4817455;54;21536;-35
2021/05/21 04:58:32;;;;;;;37.10;32.92;;;22.40;54.70;;;;;;4843950;54;21058;-35
2021/05/21 05:03:33;;;;;;;36.30;30.50;;;22.40;54.70;;;;;;4801575;54;21006;-42
2021/05/21 05:08:34;;;;;;;36.35;31.02;;;22.40;54.70;;;;;;4794826;58;21497;-39
2021/05/21 05:13:35;;;;;;;36.97;32.97;;;22.30;54.70;;;;;;4852060;54;21070;-35
2021/05/21 05:18:36;;;;;;;35.47;30.80;;;22.30;54.70;;;;;;4813517;54;21050;-41
2021/05/21 05:23:36;;;;;;;37.40;30.52;;;22.40;54.70;;;;;;4803487;54;21442;-47
2021/05/21 05:28:37;;;;;;;36.40;31.90;;;22.30;54.60;;;;;;4803971;54;20987;-37
2021/05/21 05:33:40;;;;;;;36.47;32.08;;;22.30;54.60;;;;;;4834437;54;21015;-38
2021/05/21 05:38:41;;;;;;;36.05;30.50;;;22.30;54.60;;;;;;4832652;54;21552;-35
2021/05/21 05:43:42;;;;;;;37.63;32.45;;;22.30;54.60;;;;;;4799688;54;21066;-38
2021/05/21 05:48:43;;;;;;;34.83;30.30;;;22.30;54.50;;;;;;4813985;54;21003;-37
2021/05/21 05:53:43;;;;;;;34.60;29.48;;;22.30;54.50;;;;;;4803382;54;20983;-36
2021/05/21 05:58:44;;;;;;;33.53;28.77;;;22.30;54.40;;;;;;4794599;58;21485;-44
2021/05/21 06:03:45;;;;;;;34.30;29.58;;;22.30;54.40;;;;;;4803898;54;21023;-38
2021/05/21 06:08:46;;;;;;;37.97;31.85;;;22.30;54.90;;;;;;4830827;54;21497;-39
2021/05/21 06:13:47;;;;;;;38.47;31.45;;;22.30;54.30;;;;;;4830809;54;21074;-36
2021/05/21 06:18:48;;;;;;;36.83;31.60;;;22.30;54.30;;;;;;4799494;54;21565;-38
2021/05/21 06:23:49;;;;;;;34.90;29.83;;;22.30;54.30;;;;;;4824098;54;21465;-40
2021/05/21 06:28:53;;;;;;;36.15;31.08;;;22.30;54.50;;;;;;4807258;54;20999;-36
2021/05/21 06:33:54;;;;;;;37.15;30.52;;;22.30;54.10;;;;;;4824000;54;21020;-37
2021/05/21 06:38:55;;;;;;;34.63;30.00;;;22.30;54.10;;;;;;4793622;58;21062;-40
2021/05/21 06:43:56;;;;;;;35.20;29.83;;;22.30;54.00;;;;;;4797631;54;21493;-36
2021/05/21 06:48:56;;;;;;;36.08;30.75;;;22.30;54.00;;;;;;4802098;54;21015;-39
2021/05/21 06:53:57;;;;;;;36.38;29.98;;;22.30;54.00;;;;;;4802719;54;21050;-38
2021/05/21 06:58:58;;;;;;;37.58;31.75;;;22.30;54.00;;;;;;4831866;54;21409;-37
2021/05/21 07:03:59;;;;;;;34.20;29.40;;;22.30;54.00;;;;;;4812933;54;20991;-39
2021/05/21 07:09:00;;;;;;;37.13;30.65;;;22.30;54.50;;;;;;4804576;54;21023;-38
2021/05/21 07:14:02;;;;;;;39.58;32.45;;;22.30;54.20;;;;;;4794031;58;21007;-38
2021/05/21 07:19:04;;;;;;;36.80;29.85;;;22.40;54.40;;;;;;4795417;54;21023;-38
2021/05/21 07:24:05;;;;;;;37.28;31.27;;;22.40;54.50;;;;;;4794189;58;21023;-37
2021/05/21 07:29:07;;;;;;;37.35;30.83;;;22.40;54.60;;;;;;4800480;54;21110;-35
2021/05/21 07:34:07;;;;;;;36.88;29.33;;;22.50;54.80;;;;;;4812861;54;21545;-42
2021/05/21 07:39:09;;;;;;;39.30;31.12;;;22.50;54.90;;;;;;4820726;54;21103;-39
2021/05/21 07:44:11;;;;;;;37.95;31.12;;;22.50;55.00;;;;;;4795131;54;21484;-39
2021/05/21 07:49:12;;;;;;;37.70;30.80;;;22.60;55.10;;;;;;4798184;54;21669;-36
2021/05/21 07:54:12;;;;;;;49.10;35.63;;;22.60;55.00;;;;;;4819668;54;21068;-32
2021/05/21 07:59:14;;;;;;;40.92;31.48;;;22.60;53.20;;;;;;4798021;54;21046;-37
2021/05/21 08:04:14;;;;;;;52.08;35.28;;;22.50;53.70;;;;;;4797187;54;21550;-39
2021/05/21 08:09:17;;;;;;;49.20;35.63;;;22.50;52.50;;;;;;4822270;54;21078;-49
2021/05/21 08:14:18;;;;;;;43.95;33.42;;;22.50;51.20;;;;;;4847623;54;21458;-39
2021/05/21 08:19:19;;;;;;;45.40;32.05;;;22.50;51.30;;;;;;4823862;54;21007;-41
2021/05/21 08:24:19;;;;;;;102.85;78.32;;;22.50;49.90;;;;;;4799644;54;21023;-37
2021/05/21 08:29:20;;;;;;;167.55;128.55;;;22.50;49.60;;;;;;4808659;54;21071;-39
2021/05/21 08:34:21;;;;;;;127.05;98.80;;;22.50;49.30;;;;;;4799476;54;21593;-38
2021/05/21 08:39:22;;;;;;;114.97;86.10;;;22.50;48.90;;;;;;4796240;54;21644;-39
2021/05/21 08:44:26;;;;;;;105.28;76.20;;;22.50;49.10;;;;;;4818985;54;21654;-37
2021/05/21 08:49:27;;;;;;;94.28;66.30;;;22.50;49.10;;;;;;4795485;54;21484;-39
2021/05/21 08:54:34;;;;;;;89.37;64.43;;;22.50;48.40;;;;;;4799772;54;20991;-38
2021/05/21 08:59:35;;;;;;;92.32;60.38;;;22.50;49.00;;;;;;4811375;54;22260;-35
2021/05/21 09:04:59;;;;;;;86.12;54.85;;;22.50;49.10;;;;;;4796961;54;21010;-32
2021/05/21 09:10:10;;;;;;;82.20;50.95;;;22.50;49.00;;;;;;4802782;54;21509;-34
2021/05/21 09:15:24;;;;;;;83.32;48.60;;;22.50;48.90;;;;;;4824976;54;21011;-35
2021/05/21 09:20:39;;;;;;;68.82;44.47;;;22.50;48.80;;;;;;4831465;54;21564;-37
2021/05/21 09:25:51;;;;;;;73.55;45.22;;;22.50;48.70;;;;;;4818229;54;21122;-37
2021/05/21 09:31:26;;;;;;;74.32;46.28;;;22.60;48.50;;;;;;4801310;54;20995;-35
2021/05/21 09:36:31;;;;;;;68.85;46.45;;;22.60;48.30;;;;;;4796235;54;21027;-36
2021/05/21 09:41:47;;;;;;;72.87;47.00;;;22.60;48.30;;;;;;4817537;54;22203;-36
2021/05/21 09:46:50;;;;;;;66.53;47.73;;;22.60;48.20;;;;;;4842140;54;21484;-35
2021/05/21 09:51:56;;;;;;;64.60;46.03;;;22.60;47.70;;;;;;4808356;54;21015;-36
2021/05/21 09:57:09;;;;;;;73.82;53.17;;;22.60;47.70;;;;;;4800653;54;21043;-35
2021/05/21 10:02:22;;;;;;;77.15;54.85;;;22.60;47.30;;;;;;4810945;54;21465;-46
2021/05/21 10:07:24;;;;;;;75.45;55.92;;;22.60;47.10;;;;;;4805456;54;21517;-38
2021/05/21 10:12:25;;;;;;;72.55;52.08;;;22.60;46.50;;;;;;4813717;54;21055;-36
2021/05/21 10:17:28;;;;;;;77.65;52.42;;;22.60;46.30;;;;;;4793885;58;21038;-37
2021/05/21 10:22:35;;;;;;;71.22;51.78;;;22.60;46.20;;;;;;4808988;54;21973;-34
2021/05/21 10:27:39;;;;;;;65.72;49.13;;;22.60;46.20;;;;;;4802826;54;21003;-36
2021/05/21 10:32:40;;;;;;;68.53;50.95;;;22.60;46.10;;;;;;4796428;54;20988;-32
2021/05/21 10:37:41;;;;;;;72.43;49.53;;;22.60;45.70;;;;;;4828210;54;21543;-36
2021/05/21 10:42:47;;;;;;;65.72;47.38;;;22.60;45.80;;;;;;4798263;54;21031;-37
2021/05/21 10:47:59;;;;;;;67.10;47.95;;;22.60;45.70;;;;;;4812217;54;20979;-37
2021/05/21 10:53:05;;;;;;;65.68;46.92;;;22.60;45.70;;;;;;4821177;54;21014;-34
2021/05/21 10:58:06;;;;;;;60.45;45.17;;;22.70;45.50;;;;;;4793791;58;21426;-35
2021/05/21 11:03:07;;;;;;;61.88;46.25;;;22.70;45.50;;;;;;4813796;54;21461;-37
2021/05/21 11:08:14;;;;;;;57.60;43.65;;;22.70;45.20;;;;;;4837542;54;20992;-34
2021/05/21 11:13:17;;;;;;;;;;;22.70;45.10;;;;;;4797398;58;21493;-36
2021/05/21 11:18:30;;;;;;;58.67;39.53;;;22.70;44.90;;;;;;4792954;58;20194;-35
2021/05/21 11:23:54;;;;;;;52.05;36.83;;;22.70;44.20;;;;;;4813819;54;21489;-32
2021/05/21 11:28:57;;;;;;;59.70;40.53;;;22.60;43.70;;;;;;4805888;54;21066;-37
2021/05/21 11:34:01;;;;;;;50.20;38.28;;;22.70;44.20;;;;;;4798327;54;21081;-36
2021/05/21 11:39:05;;;;;;;55.25;38.20;;;22.60;44.20;;;;;;4870819;54;21119;-36
2021/05/21 11:44:09;;;;;;;53.63;37.83;;;22.70;44.40;;;;;;5145262;54;21003;-39
2021/05/21 11:49:23;;;;;;;50.83;36.80;;;22.70;44.60;;;;;;4801441;54;20987;-38
2021/05/21 11:54:25;;;;;;;48.63;36.92;;;22.70;44.80;;;;;;4831331;54;21039;-40
2021/05/21 11:59:26;;;;;;;49.85;37.38;;;22.70;45.00;;;;;;4809113;54;21023;-39
2021/05/21 12:04:35;;;;;;;47.38;36.15;;;22.70;45.20;;;;;;4793614;58;21489;-38
2021/05/21 12:09:36;;;;;;;46.85;34.25;;;22.70;45.50;;;;;;4807123;54;21486;-47
2021/05/21 12:14:37;;;;;;;47.30;36.28;;;22.70;45.70;;;;;;4794257;58;20999;-38
2021/05/21 12:19:41;;;;;;;47.28;36.58;;;22.70;45.90;;;;;;4796320;54;21485;-44
2021/05/21 12:24:43;;;;;;;45.78;35.25;;;22.80;46.20;;;;;;4812372;54;21520;-41
2021/05/21 12:29:44;;;;;;;44.00;34.25;;;22.80;46.40;;;;;;4817994;54;21114;-42
2021/05/21 12:34:51;;;;;;;46.95;36.33;;;22.80;46.60;;;;;;4795888;54;21067;-39
2021/05/21 12:39:52;;;;;;;45.35;34.42;;;22.80;46.80;;;;;;4809054;54;21203;-45
2021/05/21 12:44:54;;;;;;;45.72;34.55;;;22.80;47.10;;;;;;4808243;54;21541;-46
2021/05/21 12:49:55;;;;;;;42.95;34.55;;;22.90;47.30;;;;;;4800250;54;20988;-34
2021/05/21 12:54:55;;;;;;;42.60;34.20;;;22.90;47.90;;;;;;4807039;54;21070;-38
2021/05/21 12:59:59;;;;;;;45.55;34.97;;;22.90;48.30;;;;;;4814726;54;21101;-38
2021/05/21 13:05:42;;;;;;;43.95;34.58;;;23.00;48.80;;;;;;4821058;54;21485;-34
2021/05/21 13:10:44;;;;;;;43.50;34.90;;;23.00;49.10;;;;;;4802553;54;20988;-37
2021/05/21 13:15:45;;;;;;;42.92;34.97;;;23.10;49.40;;;;;;4848509;54;22244;-38
2021/05/21 13:20:47;;;;;;;44.72;36.38;;;23.10;49.60;;;;;;4827998;54;21159;-37
2021/05/21 13:25:53;;;;;;;43.28;35.63;;;23.10;50.00;;;;;;4850439;54;21465;-40
2021/05/21 13:30:54;;;;;;;43.40;35.42;;;23.10;50.20;;;;;;4793111;58;21054;-37
2021/05/21 13:35:55;;;;;;;41.53;35.97;;;23.20;50.50;;;;;;4802926;54;21309;-35
2021/05/21 13:40:55;;;;;;;44.22;35.13;;;23.20;50.60;;;;;;4839706;54;21497;-38
2021/05/21 13:45:56;;;;;;;46.90;37.53;;;23.30;50.90;;;;;;4797199;54;20983;-39
2021/05/21 13:50:57;;;;;;;49.40;37.00;;;23.20;50.80;;;;;;4831946;54;20987;-37
2021/05/21 13:55:58;;;;;;;47.72;37.20;;;23.30;50.90;;;;;;4806535;54;22548;-42
2021/05/21 14:00:59;;;;;;;46.55;37.08;;;23.20;51.00;;;;;;4803423;54;21011;-40
2021/05/21 14:06:00;;;;;;;48.50;36.03;;;23.30;51.10;;;;;;4804102;54;21047;-47
2021/05/21 14:11:02;;;;;;;46.80;37.38;;;23.20;51.30;;;;;;4794457;58;21125;-48
2021/05/21 14:16:04;;;;;;;47.45;38.15;;;23.10;51.20;;;;;;4818517;54;20999;-40
2021/05/21 14:21:05;;;;;;;48.67;38.33;;;23.10;51.20;;;;;;4818004;54;21501;-48
2021/05/21 14:26:07;;;;;;;47.97;39.47;;;23.00;51.30;;;;;;4802634;54;21477;-47
2021/05/21 14:31:08;;;;;;;46.47;38.28;;;23.00;51.30;;;;;;4800904;54;21430;-38
2021/05/21 14:36:09;;;;;;;49.42;40.12;;;23.00;51.30;;;;;;4824114;54;21016;-41
2021/05/21 14:41:10;;;;;;;46.88;37.67;;;22.90;51.30;;;;;;4802155;54;21529;-38
2021/05/21 14:46:11;;;;;;;46.70;38.03;;;22.90;51.20;;;;;;4794642;58;21472;-46
2021/05/21 14:51:12;;;;;;;49.28;37.67;;;22.90;51.30;;;;;;4794174;58;21132;-41
2021/05/21 14:56:14;;;;;;;45.10;37.83;;;22.80;51.20;;;;;;4804512;54;21042;-48
2021/05/21 15:01:15;;;;;;;48.63;39.67;;;22.80;51.20;;;;;;4799184;54;21477;-37
2021/05/21 15:06:16;;;;;;;45.58;38.80;;;22.80;51.10;;;;;;4802933;54;21075;-41
2021/05/21 15:11:19;;;;;;;46.10;37.58;;;22.80;51.10;;;;;;4846153;54;20999;-39
2021/05/21 15:21:49;;;;;;;46.97;39.70;;;22.80;51.10;;;;;;4811690;54;21051;-46
2021/05/21 15:26:51;;;;;;;46.47;37.30;;;22.80;51.10;;;;;;4830177;54;21062;-48
2021/05/21 15:31:53;;;;;;;47.10;39.33;;;22.70;51.00;;;;;;4848281;54;21465;-37
2021/05/21 15:36:53;;;;;;;47.10;39.00;;;22.80;51.10;;;;;;4813370;54;21116;-39
2021/05/21 15:42:22;;;;;;;45.83;38.63;;;22.70;51.00;;;;;;4816037;54;21015;-37
2021/05/21 15:47:26;;;;;;;46.90;39.65;;;22.70;51.00;;;;;;4793717;58;21628;-46
2021/05/21 15:53:40;;;;;;;46.13;39.78;;;22.70;51.00;;;;;;4794409;58;21498;-41
2021/05/21 15:59:05;;;;;;;43.05;36.45;;;22.70;51.00;;;;;;4872680;54;21513;-37
2021/05/21 16:04:07;;;;;;;47.47;38.45;;;22.70;51.00;;;;;;4828669;54;21580;-37
2021/05/21 16:09:09;;;;;;;47.20;38.67;;;22.70;51.00;;;;;;4811395;54;21461;-46
2021/05/21 16:14:12;;;;;;;46.97;39.47;;;22.70;51.00;;;;;;4822191;54;21469;-44
2021/05/21 16:19:13;;;;;;;45.03;37.35;;;22.70;51.00;;;;;;4813658;54;21576;-40
2021/05/21 16:24:14;;;;;;;44.92;39.30;;;22.70;51.00;;;;;;4794646;58;21184;-31
2021/05/21 16:29:16;;;;;;;45.10;38.15;;;22.70;51.00;;;;;;4794226;54;21110;-32
2021/05/21 16:34:16;;;;;;;43.80;36.53;;;22.70;51.00;;;;;;4794535;54;21581;-34
2021/05/21 16:39:17;;;;;;;43.30;36.22;;;22.70;51.00;;;;;;4796616;54;21074;-49
2021/05/21 16:44:18;;;;;;;42.50;35.55;;;22.70;51.10;;;;;;4794223;55;21059;-39
2021/05/21 16:49:19;;;;;;;45.53;39.15;;;22.70;51.50;;;;;;4794036;55;21119;-40
2021/05/21 16:54:20;;;;;;;45.30;37.63;;;22.70;51.00;;;;;;4798025;54;21540;-40
2021/05/21 16:59:21;;;;;;;44.47;37.92;;;22.70;51.00;;;;;;4797057;54;21170;-45
2021/05/21 17:04:23;;;;;;;45.17;38.10;;;22.70;50.90;;;;;;4794065;58;21525;-40
2021/05/21 17:09:24;;;;;;;45.20;38.22;;;22.70;50.90;;;;;;4794524;58;21561;-38
2021/05/21 17:14:39;;;;;;;43.28;36.67;;;22.70;51.00;;;;;;4794045;55;21446;-38
2021/05/21 17:19:53;;;;;;;43.45;37.63;;;22.70;50.90;;;;;;4805305;54;21525;-38
2021/05/21 17:42:36;;;;;;;43.58;38.38;;;22.70;50.80;;;;;;4794255;54;21083;-36
2021/05/21 17:47:45;;;;;;;42.22;35.80;;;22.60;50.80;;;;;;4821032;54;22038;-38
2021/05/21 17:52:55;;;;;;;41.47;36.47;;;22.60;50.80;;;;;;4798683;54;21114;-36
2021/05/21 18:27:52;;;;;;;42.72;36.78;;;22.70;50.80;;;;;;4803323;54;21114;-41
2021/05/21 19:00:51;;;;;;;40.70;34.03;;;22.70;50.90;;;;;;4793707;54;21027;-37
2021/05/21 19:05:57;;;;;;;39.25;33.20;;;22.60;50.90;;;;;;4794131;58;21007;-37
2021/05/21 19:16:31;;;;;;;40.47;34.17;;;22.60;50.90;;;;;;4793939;54;21011;-36
2021/05/21 19:21:40;;;;;;;37.53;32.85;;;22.60;50.90;;;;;;4794150;58;21372;-36
2021/05/21 19:26:49;;;;;;;41.47;33.72;;;22.60;50.90;;;;;;4794300;58;21021;-38
2021/05/21 19:32:03;;;;;;;36.05;31.48;;;22.60;50.90;;;;;;4794537;58;22133;-31
2021/05/21 20:22:50;;;;;;;34.42;30.60;;;22.60;50.90;;;;;;4817404;54;21554;-45
2021/05/21 20:36:01;;;;;;;34.95;29.73;;;22.60;50.90;;;;;;4802695;54;21087;-44
2021/05/21 21:02:51;;;;;;;33.10;28.60;;;22.60;50.90;;;;;;4821557;54;21067;-39
2021/05/21 21:07:57;;;;;;;32.70;27.73;;;22.60;50.90;;;;;;4802875;54;21482;-39
2021/05/21 21:13:12;;;;;;;33.30;28.60;;;22.60;51.00;;;;;;4795376;54;21059;-37
2021/05/21 21:25:55;;;;;;;31.02;26.67;;;22.60;50.90;;;;;;4864416;54;21074;-37
2021/05/21 21:44:46;;;;;;;31.73;27.62;;;22.60;50.90;;;;;;4793259;54;21047;-37
2021/05/21 22:07:46;;;;;;;30.48;26.05;;;22.50;50.90;;;;;;4794043;54;21066;-38
2021/05/21 22:12:57;;;;;;;28.40;25.15;;;22.60;51.00;;;;;;4827600;54;21502;-39
2021/05/21 22:26:06;;;;;;;27.60;23.25;;;22.60;51.00;;;;;;4830149;54;21094;-39
2021/05/21 22:31:07;;;;;;;28.15;24.20;;;22.60;51.00;;;;;;4796404;54;20983;-43
2021/05/21 22:36:08;;;;;;;26.42;23.58;;;22.60;51.00;;;;;;4829379;54;21079;-40
2021/05/21 22:41:10;;;;;;;27.50;24.50;;;22.60;51.00;;;;;;4794424;58;21155;-37
2021/05/21 22:46:11;;;;;;;26.17;22.75;;;22.60;51.10;;;;;;4820987;54;21031;-34
2021/05/21 22:51:12;;;;;;;26.60;23.33;;;22.60;51.10;;;;;;4832460;54;20998;-38
2021/05/21 22:56:13;;;;;;;28.12;23.70;;;22.60;51.20;;;;;;4838151;54;21505;-36
2021/05/21 23:01:14;;;;;;;27.35;23.05;;;22.60;51.10;;;;;;4811213;54;20995;-38
2021/05/21 23:06:14;;;;;;;26.55;22.48;;;22.60;51.10;;;;;;4812970;54;21241;-37
2021/05/21 23:11:15;;;;;;;26.67;22.85;;;22.60;51.10;;;;;;4794451;58;20987;-38
2021/05/21 23:16:16;;;;;;;26.00;22.55;;;22.50;51.10;;;;;;4794534;58;20998;-36
2021/05/21 23:21:17;;;;;;;25.48;22.45;;;22.60;51.10;;;;;;4813677;54;21014;-38
2021/05/21 23:26:18;;;;;;;26.52;23.30;;;22.50;51.10;;;;;;4806062;54;21052;-37
2021/05/21 23:31:19;;;;;;;24.85;21.70;;;22.60;51.10;;;;;;4795157;54;20999;-36
2021/05/21 23:36:20;;;;;;;24.85;21.62;;;22.60;51.10;;;;;;4812924;54;21092;-38
2021/05/21 23:41:21;;;;;;;26.25;22.83;;;22.50;51.10;;;;;;4820625;54;21096;-37
2021/05/21 23:46:22;;;;;;;24.92;22.33;;;22.50;51.10;;;;;;4846635;54;21071;-38
2021/05/21 23:51:23;;;;;;;23.65;21.12;;;22.60;51.10;;;;;;4802280;54;21059;-38
2021/05/21 23:56:24;;;;;;;26.55;22.08;;;22.60;51.10;;;;;;4794176;58;21513;-43
